createdAt,value
2022-10-15T00:00:52.143Z,14.67
2022-10-15T00:03:18.755Z,14.62
2022-10-15T00:05:48.233Z,14.57
2022-10-15T00:08:15.168Z,14.65
2022-10-15T00:10:41.835Z,14.64
2022-10-15T00:13:08.531Z,14.66
2022-10-15T00:15:37.180Z,14.55
2022-10-15T00:18:03.841Z,14.59
2022-10-15T00:20:31.610Z,14.64
2022-10-15T00:22:58.139Z,14.63
2022-10-15T00:25:24.658Z,14.63
2022-10-15T00:27:51.180Z,14.60
2022-10-15T00:30:17.932Z,14.54
2022-10-15T00:32:44.474Z,14.53
2022-10-15T00:35:10.963Z,14.24
2022-10-15T00:37:37.466Z,14.48
2022-10-15T00:40:04.416Z,14.53
2022-10-15T00:42:32.349Z,14.53
2022-10-15T00:44:59.882Z,14.54
2022-10-15T00:47:29.559Z,14.51
2022-10-15T00:50:03.115Z,14.48
2022-10-15T00:52:37.001Z,14.49
2022-10-15T00:55:19.038Z,14.47
2022-10-15T00:57:49.441Z,14.49
2022-10-15T01:00:17.231Z,14.49
2022-10-15T01:02:45.472Z,14.53
2022-10-15T01:05:15.029Z,14.55
2022-10-15T01:07:41.553Z,14.58
2022-10-15T01:10:10.015Z,14.51
2022-10-15T01:13:18.426Z,14.59
2022-10-15T01:15:55.474Z,14.60
2022-10-15T01:18:57.269Z,14.60
2022-10-15T01:21:46.266Z,14.59
2022-10-15T01:24:35.258Z,14.63
2022-10-15T01:27:32.948Z,14.64
2022-10-15T01:30:25.675Z,14.66
2022-10-15T01:33:15.830Z,14.68
2022-10-15T01:35:50.257Z,14.69
2022-10-15T01:38:47.243Z,14.69
2022-10-15T01:41:25.730Z,14.66
2022-10-15T01:44:07.544Z,14.73
2022-10-15T01:46:57.574Z,14.74
2022-10-15T01:49:27.977Z,14.64
2022-10-15T01:51:55.909Z,14.74
2022-10-15T01:54:26.145Z,14.74
2022-10-15T01:56:54.810Z,14.68
2022-10-15T01:59:26.638Z,14.79
2022-10-15T02:01:56.305Z,14.79
2022-10-15T02:04:30.304Z,14.77
2022-10-15T02:07:08.361Z,14.78
2022-10-15T02:09:49.895Z,14.80
2022-10-15T02:12:49.737Z,14.83
2022-10-15T02:15:31.092Z,14.84
2022-10-15T02:18:24.014Z,14.83
2022-10-15T02:21:01.768Z,14.86
2022-10-15T02:23:55.397Z,14.86
2022-10-15T02:26:27.814Z,14.88
2022-10-15T02:28:59.491Z,14.92
2022-10-15T02:31:29.133Z,14.91
2022-10-15T02:33:59.382Z,14.99
2022-10-15T02:36:26.038Z,14.96
2022-10-15T02:38:56.640Z,15.00
2022-10-15T02:41:24.917Z,15.00
2022-10-15T02:43:51.450Z,14.99
2022-10-15T02:46:19.866Z,15.07
2022-10-15T02:48:46.501Z,15.08
2022-10-15T02:51:17.101Z,15.08
2022-10-15T02:53:43.668Z,15.04
2022-10-15T02:56:10.317Z,15.08
2022-10-15T02:58:37.055Z,15.09
2022-10-15T03:01:04.378Z,15.02
2022-10-15T03:03:31.065Z,14.95
2022-10-15T03:05:58.596Z,15.08
2022-10-15T03:08:25.217Z,15.07
2022-10-15T03:10:51.813Z,14.99
2022-10-15T03:13:18.306Z,15.08
2022-10-15T03:15:50.662Z,15.09
2022-10-15T03:18:17.191Z,15.11
2022-10-15T03:20:43.785Z,15.04
2022-10-15T03:23:10.454Z,15.12
2022-10-15T03:25:37.089Z,15.11
2022-10-15T03:28:04.981Z,14.95
2022-10-15T03:30:41.890Z,15.16
2022-10-15T03:33:08.648Z,15.17
2022-10-15T03:35:36.008Z,15.20
2022-10-15T03:38:03.063Z,15.11
2022-10-15T03:40:30.097Z,15.14
2022-10-15T03:43:07.547Z,15.22
2022-10-15T03:45:34.202Z,15.23
2022-10-15T03:48:13.871Z,15.14
2022-10-15T03:50:40.501Z,15.25
2022-10-15T03:53:07.276Z,15.04
2022-10-15T03:55:34.705Z,15.24
2022-10-15T03:58:01.312Z,15.29
2022-10-15T04:00:28.607Z,15.28
2022-10-15T04:02:59.370Z,15.23
2022-10-15T04:05:28.187Z,15.29
2022-10-15T04:08:04.468Z,15.34
2022-10-15T04:10:35.942Z,15.34
2022-10-15T04:13:02.626Z,15.33
2022-10-15T04:15:31.841Z,15.35
2022-10-15T04:18:03.758Z,15.26
2022-10-15T04:20:31.052Z,15.37
2022-10-15T04:23:10.446Z,15.37
2022-10-15T04:25:39.529Z,15.37
2022-10-15T04:28:07.406Z,15.39
2022-10-15T04:30:36.594Z,15.32
2022-10-15T04:33:06.125Z,15.18
2022-10-15T04:35:34.972Z,15.39
2022-10-15T04:38:08.715Z,15.34
2022-10-15T04:41:12.499Z,15.44
2022-10-15T04:44:11.296Z,15.44
2022-10-15T04:46:39.058Z,15.46
2022-10-15T04:49:21.602Z,15.49
2022-10-15T04:51:48.803Z,15.47
2022-10-15T04:54:21.774Z,15.46
2022-10-15T04:56:57.094Z,15.45
2022-10-15T04:59:24.562Z,15.31
2022-10-15T05:02:17.275Z,15.52
2022-10-15T05:04:49.225Z,15.54
2022-10-15T05:07:16.051Z,15.54
2022-10-15T05:09:46.370Z,15.54
2022-10-15T05:12:13.756Z,15.51
2022-10-15T05:14:41.600Z,15.62
2022-10-15T05:17:14.918Z,15.56
2022-10-15T05:19:43.042Z,15.62
2022-10-15T05:22:16.886Z,15.63
2022-10-15T05:24:49.524Z,15.59
2022-10-15T05:27:45.401Z,15.70
2022-10-15T05:30:12.710Z,15.71
2022-10-15T05:32:52.832Z,15.68
2022-10-15T05:35:20.947Z,15.71
2022-10-15T05:38:07.766Z,15.72
2022-10-15T05:40:34.338Z,15.73
2022-10-15T05:43:06.488Z,15.70
2022-10-15T05:45:33.033Z,15.67
2022-10-15T05:48:04.805Z,15.77
2022-10-15T05:50:31.353Z,15.76
2022-10-15T05:52:58.985Z,15.48
2022-10-15T05:55:39.374Z,15.78
2022-10-15T05:58:05.974Z,15.74
2022-10-15T06:00:32.996Z,15.70
2022-10-15T06:02:59.499Z,15.74
2022-10-15T06:05:26.273Z,15.67
2022-10-15T06:07:54.827Z,15.75
2022-10-15T06:10:21.420Z,15.57
2022-10-15T06:12:51.454Z,15.81
2022-10-15T06:15:21.593Z,15.82
2022-10-15T06:17:48.132Z,15.85
2022-10-15T06:20:14.701Z,15.82
2022-10-15T06:22:43.729Z,15.87
2022-10-15T06:25:10.277Z,15.86
2022-10-15T06:27:36.879Z,15.94
2022-10-15T06:30:04.309Z,15.96
2022-10-15T06:32:30.878Z,15.99
2022-10-15T06:35:00.110Z,16.01
2022-10-15T06:37:28.666Z,16.03
2022-10-15T06:39:58.340Z,15.81
2022-10-15T06:42:24.815Z,16.02
2022-10-15T06:44:54.928Z,16.07
2022-10-15T06:47:21.898Z,16.12
2022-10-15T06:49:49.032Z,16.17
2022-10-15T06:52:15.855Z,16.23
2022-10-15T06:54:42.353Z,16.17
2022-10-15T06:57:10.599Z,16.35
2022-10-15T06:59:41.378Z,16.26
2022-10-15T07:02:10.014Z,16.38
2022-10-15T07:04:36.811Z,16.56
2022-10-15T07:07:03.773Z,16.59
2022-10-15T07:09:30.836Z,16.59
2022-10-15T07:11:57.401Z,16.65
2022-10-15T07:14:24.072Z,16.69
2022-10-15T07:16:50.584Z,16.67
2022-10-15T07:19:17.270Z,16.73
2022-10-15T07:21:44.317Z,16.52
2022-10-15T07:24:10.937Z,16.71
2022-10-15T07:26:37.471Z,16.70
2022-10-15T07:29:04.311Z,16.71
2022-10-15T07:31:31.567Z,16.69
2022-10-15T07:33:58.252Z,16.77
2022-10-15T07:36:25.231Z,16.67
2022-10-15T07:38:52.301Z,16.79
2022-10-15T07:41:18.842Z,16.77
2022-10-15T07:43:45.483Z,16.87
2022-10-15T07:46:12.093Z,16.79
2022-10-15T07:49:06.510Z,17.07
2022-10-15T07:51:33.066Z,16.86
2022-10-15T07:53:59.606Z,17.09
2022-10-15T07:56:26.107Z,17.08
2022-10-15T07:58:52.906Z,17.10
2022-10-15T08:01:20.997Z,17.12
2022-10-15T08:03:48.013Z,17.16
2022-10-15T08:06:15.293Z,17.25
2022-10-15T08:08:41.956Z,17.35
2022-10-15T08:11:11.867Z,17.36
2022-10-15T08:13:41.301Z,17.43
2022-10-15T08:16:12.584Z,17.49
2022-10-15T08:18:40.069Z,17.46
2022-10-15T08:21:08.111Z,17.50
2022-10-15T08:23:35.591Z,17.62
2022-10-15T08:26:02.823Z,17.70
2022-10-15T08:28:30.560Z,17.74
2022-10-15T08:31:02.630Z,17.69
2022-10-15T08:33:32.480Z,17.53
2022-10-15T08:35:59.105Z,17.49
2022-10-15T08:38:25.801Z,17.37
2022-10-15T08:40:55.983Z,17.40
2022-10-15T08:43:28.646Z,17.41
2022-10-15T08:46:02.724Z,17.43
2022-10-15T08:48:42.718Z,17.41
2022-10-15T08:51:45.831Z,17.51
2022-10-15T08:54:18.242Z,17.53
2022-10-15T08:57:12.788Z,17.59
2022-10-15T08:59:49.549Z,17.59
2022-10-15T09:02:29.237Z,17.52
2022-10-15T09:05:22.675Z,17.28
2022-10-15T09:08:05.877Z,17.26
2022-10-15T09:10:57.312Z,17.28
2022-10-15T09:13:33.543Z,17.18
2022-10-15T09:16:05.301Z,17.13
2022-10-15T09:18:35.836Z,17.06
2022-10-15T09:21:05.223Z,16.97
2022-10-15T09:23:33.751Z,16.99
2022-10-15T09:26:13.185Z,17.05
2022-10-15T09:28:48.400Z,17.16
2022-10-15T09:31:23.222Z,17.21
2022-10-15T09:33:59.642Z,17.35
2022-10-15T09:36:32.478Z,17.37
2022-10-15T09:39:15.759Z,17.63
2022-10-15T09:42:07.616Z,17.82
2022-10-15T09:44:39.027Z,18.03
2022-10-15T09:47:24.176Z,18.18
2022-10-15T09:49:55.281Z,18.41
2022-10-15T09:52:52.853Z,18.69
2022-10-15T09:55:31.299Z,18.92
2022-10-15T09:58:06.904Z,19.14
2022-10-15T10:00:51.786Z,19.42
2022-10-15T10:03:18.311Z,19.57
2022-10-15T10:05:45.905Z,19.72
2022-10-15T10:08:26.930Z,19.87
2022-10-15T10:10:59.474Z,19.86
2022-10-15T10:13:44.642Z,19.92
2022-10-15T10:16:12.612Z,19.92
2022-10-15T10:18:39.709Z,20.08
2022-10-15T10:21:24.144Z,20.32
2022-10-15T10:23:50.708Z,20.63
2022-10-15T10:26:17.291Z,21.00
2022-10-15T10:28:57.144Z,21.47
2022-10-15T10:31:29.349Z,21.85
2022-10-15T10:33:56.442Z,21.86
2022-10-15T10:36:28.835Z,21.84
2022-10-15T10:39:03.395Z,21.74
2022-10-15T10:41:52.371Z,21.82
2022-10-15T10:44:39.167Z,21.80
2022-10-15T10:47:10.561Z,21.76
2022-10-15T10:49:51.734Z,21.74
2022-10-15T10:52:24.335Z,21.73
2022-10-15T10:54:58.295Z,21.68
2022-10-15T10:57:40.446Z,21.42
2022-10-15T11:00:43.026Z,21.53
2022-10-15T11:03:31.856Z,21.58
2022-10-15T11:06:16.416Z,21.61
2022-10-15T11:08:56.795Z,21.70
2022-10-15T11:11:31.839Z,21.73
2022-10-15T11:14:17.346Z,21.79
2022-10-15T11:17:19.628Z,21.76
2022-10-15T11:22:59.455Z,22.05
2022-10-15T11:25:40.699Z,22.54
2022-10-15T11:28:28.809Z,22.86
2022-10-15T11:31:09.399Z,22.92
2022-10-15T11:33:35.891Z,23.07
2022-10-15T11:36:23.708Z,23.22
2022-10-15T11:38:56.153Z,23.51
2022-10-15T11:41:36.773Z,23.43
2022-10-15T11:44:18.453Z,23.29
2022-10-15T11:47:11.312Z,23.02
2022-10-15T11:50:26.843Z,22.84
2022-10-15T11:53:08.777Z,22.57
2022-10-15T11:55:39.258Z,22.22
2022-10-15T11:58:14.564Z,21.98
2022-10-15T12:00:46.733Z,22.33
2022-10-15T12:03:22.448Z,22.24
2022-10-15T12:05:50.021Z,22.39
2022-10-15T12:08:18.029Z,22.23
2022-10-15T12:10:53.586Z,22.00
2022-10-15T12:13:36.114Z,21.90
2022-10-15T12:16:19.375Z,22.10
2022-10-15T12:18:53.414Z,22.13
2022-10-15T12:21:55.058Z,22.54
2022-10-15T12:24:38.554Z,22.56
2022-10-15T12:27:20.466Z,22.52
2022-10-15T12:29:50.107Z,22.47
2022-10-15T12:32:40.420Z,22.43
2022-10-15T12:35:16.210Z,22.30
2022-10-15T12:37:48.059Z,22.38
2022-10-15T12:40:23.327Z,22.31
2022-10-15T12:42:52.299Z,22.41
2022-10-15T12:45:40.322Z,22.63
2022-10-15T12:48:16.095Z,22.60
2022-10-15T12:50:43.487Z,22.48
2022-10-15T12:53:29.315Z,22.37
2022-10-15T12:56:11.938Z,22.25
2022-10-15T12:58:54.818Z,21.98
2022-10-15T13:01:21.365Z,21.85
2022-10-15T13:03:50.813Z,21.72
2022-10-15T13:06:20.320Z,21.54
2022-10-15T13:09:04.244Z,21.41
2022-10-15T13:11:37.060Z,21.39
2022-10-15T13:14:47.085Z,21.36
2022-10-15T13:17:18.947Z,21.30
2022-10-15T13:19:56.426Z,21.41
2022-10-15T13:22:29.291Z,21.36
2022-10-15T13:24:56.550Z,21.29
2022-10-15T13:27:28.923Z,21.23
2022-10-15T13:30:02.520Z,21.17
2022-10-15T13:32:32.151Z,21.09
2022-10-15T13:35:00.681Z,20.46
2022-10-15T13:37:32.929Z,20.94
2022-10-15T13:40:03.182Z,20.90
2022-10-15T13:42:33.773Z,20.99
2022-10-15T13:45:01.931Z,20.99
2022-10-15T13:47:28.484Z,20.96
2022-10-15T13:50:25.340Z,21.00
2022-10-15T13:52:57.300Z,21.13
2022-10-15T13:55:30.446Z,21.30
2022-10-15T13:58:06.752Z,21.48
2022-10-15T14:00:35.481Z,21.50
2022-10-15T14:03:32.195Z,21.52
2022-10-15T14:06:11.552Z,21.56
2022-10-15T14:08:38.187Z,21.53
2022-10-15T14:11:05.010Z,21.60
2022-10-15T14:13:31.562Z,21.55
2022-10-15T14:16:18.640Z,21.54
2022-10-15T14:19:09.928Z,21.49
2022-10-15T14:21:42.759Z,21.55
2022-10-15T14:24:19.310Z,21.52
2022-10-15T14:26:46.502Z,21.44
2022-10-15T14:29:24.583Z,21.30
2022-10-15T14:31:51.141Z,21.13
2022-10-15T14:34:34.789Z,21.00
2022-10-15T14:37:03.047Z,20.78
2022-10-15T14:39:35.382Z,20.70
2022-10-15T14:42:07.570Z,20.58
2022-10-15T14:44:46.607Z,20.43
2022-10-15T14:47:27.682Z,20.30
2022-10-15T14:49:57.954Z,20.27
2022-10-15T14:52:24.566Z,20.23
2022-10-15T14:54:53.913Z,20.24
2022-10-15T14:57:27.154Z,20.09
2022-10-15T14:59:55.312Z,20.16
2022-10-15T15:02:24.914Z,20.14
2022-10-15T15:05:13.466Z,20.12
2022-10-15T15:07:40.793Z,20.10
2022-10-15T15:10:08.861Z,20.09
2022-10-15T15:12:38.102Z,19.99
2022-10-15T15:15:12.630Z,19.98
2022-10-15T15:17:39.217Z,19.99
2022-10-15T15:20:06.298Z,19.93
2022-10-15T15:22:34.570Z,19.90
2022-10-15T15:25:26.692Z,19.89
2022-10-15T15:27:53.252Z,19.77
2022-10-15T15:30:22.298Z,19.70
2022-10-15T15:32:49.060Z,19.74
2022-10-15T15:35:18.227Z,19.72
2022-10-15T15:37:45.116Z,19.68
2022-10-15T15:40:11.966Z,19.47
2022-10-15T15:42:38.705Z,19.55
2022-10-15T15:45:05.698Z,19.53
2022-10-15T15:47:32.336Z,19.59
2022-10-15T15:49:58.903Z,19.58
2022-10-15T15:52:25.883Z,19.51
2022-10-15T15:54:52.776Z,19.50
2022-10-15T15:57:19.333Z,19.50
2022-10-15T15:59:45.913Z,19.47
2022-10-15T16:02:12.895Z,19.41
2022-10-15T16:04:39.442Z,19.41
2022-10-15T16:07:08.970Z,19.37
2022-10-15T16:09:38.292Z,19.35
2022-10-15T16:12:04.878Z,19.31
2022-10-15T16:14:32.443Z,19.27
2022-10-15T16:16:59.061Z,19.06
2022-10-15T16:19:25.717Z,19.08
2022-10-15T16:21:52.300Z,19.17
2022-10-15T16:24:18.871Z,19.15
2022-10-15T16:26:45.502Z,19.09
2022-10-15T16:29:12.331Z,19.10
2022-10-15T16:31:38.924Z,19.09
2022-10-15T16:34:06.171Z,19.07
2022-10-15T16:36:32.758Z,18.80
2022-10-15T16:38:59.390Z,18.96
2022-10-15T16:41:25.948Z,18.93
2022-10-15T16:43:52.796Z,18.92
2022-10-15T16:46:19.887Z,18.83
2022-10-15T16:48:52.510Z,18.90
2022-10-15T16:51:19.307Z,18.87
2022-10-15T16:53:46.882Z,18.83
2022-10-15T16:56:25.123Z,18.81
2022-10-15T16:58:51.863Z,18.78
2022-10-15T17:01:21.304Z,18.77
2022-10-15T17:03:48.538Z,18.74
2022-10-15T17:06:18.887Z,18.70
2022-10-15T17:08:53.615Z,18.64
2022-10-15T17:11:21.434Z,18.65
2022-10-15T17:13:49.191Z,18.62
2022-10-15T17:16:17.699Z,18.61
2022-10-15T17:18:45.163Z,18.61
2022-10-15T17:21:15.636Z,18.54
2022-10-15T17:23:43.607Z,18.54
2022-10-15T17:26:12.912Z,18.56
2022-10-15T17:28:40.483Z,18.53
2022-10-15T17:31:12.222Z,18.49
2022-10-15T17:33:39.903Z,18.46
2022-10-15T17:36:26.151Z,18.30
2022-10-15T17:38:55.854Z,18.40
2022-10-15T17:41:24.819Z,18.41
2022-10-15T17:43:52.228Z,18.38
2022-10-15T17:46:21.642Z,18.31
2022-10-15T17:48:48.360Z,18.32
2022-10-15T17:51:17.135Z,18.27
2022-10-15T17:53:50.643Z,18.29
2022-10-15T17:56:21.830Z,18.26
2022-10-15T17:58:50.103Z,18.21
2022-10-15T18:01:39.403Z,18.13
2022-10-15T18:04:14.625Z,18.09
2022-10-15T18:06:44.935Z,18.07
2022-10-15T18:09:23.463Z,18.05
2022-10-15T18:11:50.478Z,18.02
2022-10-15T18:14:17.149Z,17.99
2022-10-15T18:16:43.936Z,17.90
2022-10-15T18:19:10.563Z,17.82
2022-10-15T18:21:37.199Z,17.87
2022-10-15T18:24:03.880Z,17.81
2022-10-15T18:26:30.648Z,17.80
2022-10-15T18:28:57.239Z,17.72
2022-10-15T18:31:26.077Z,17.63
2022-10-15T18:33:55.459Z,17.55
2022-10-15T18:36:30.678Z,17.59
2022-10-15T18:38:58.560Z,17.53
2022-10-15T18:41:32.790Z,17.56
2022-10-15T18:44:05.373Z,17.53
2022-10-15T18:46:33.900Z,17.49
2022-10-15T18:49:01.652Z,17.31
2022-10-15T18:51:30.405Z,17.36
2022-10-15T18:53:57.217Z,17.40
2022-10-15T18:56:23.854Z,17.37
2022-10-15T18:58:52.394Z,17.35
2022-10-15T19:01:27.175Z,17.30
2022-10-15T19:03:55.254Z,17.26
2022-10-15T19:06:24.853Z,17.19
2022-10-15T19:08:52.080Z,17.13
2022-10-15T19:11:19.491Z,16.92
2022-10-15T19:13:46.090Z,17.11
2022-10-15T19:16:12.699Z,17.13
2022-10-15T19:18:40.055Z,17.15
2022-10-15T19:21:06.836Z,17.09
2022-10-15T19:23:34.530Z,17.19
2022-10-15T19:26:01.131Z,17.21
2022-10-15T19:28:29.154Z,17.11
2022-10-15T19:31:01.210Z,16.91
2022-10-15T19:33:29.895Z,17.18
2022-10-15T19:35:56.487Z,17.18
2022-10-15T19:38:23.971Z,17.18
2022-10-15T19:40:51.428Z,17.11
2022-10-15T19:43:19.947Z,17.18
2022-10-15T19:45:47.848Z,17.12
2022-10-15T19:48:17.452Z,17.11
2022-10-15T19:50:45.331Z,17.21
2022-10-15T19:53:16.240Z,17.29
2022-10-15T19:55:44.504Z,17.35
2022-10-15T19:58:11.050Z,17.34
2022-10-15T20:00:37.654Z,17.33
2022-10-15T20:03:04.326Z,17.23
2022-10-15T20:05:30.822Z,17.28
2022-10-15T20:07:57.380Z,17.27
2022-10-15T20:10:26.195Z,17.29
2022-10-15T20:12:53.679Z,17.16
2022-10-15T20:15:20.928Z,17.25
2022-10-15T20:17:48.018Z,17.18
2022-10-15T20:20:14.669Z,17.15
2022-10-15T20:22:41.223Z,17.20
2022-10-15T20:25:08.184Z,17.22
2022-10-15T20:27:34.766Z,17.19
2022-10-15T20:30:01.436Z,17.23
2022-10-15T20:32:34.622Z,17.23
2022-10-15T20:35:02.674Z,17.02
2022-10-15T20:37:29.232Z,17.21
2022-10-15T20:42:23.389Z,17.22
2022-10-15T20:44:50.063Z,17.18
2022-10-15T20:47:16.634Z,17.17
2022-10-15T20:49:46.442Z,17.11
2022-10-15T20:52:14.551Z,17.14
2022-10-15T20:54:41.543Z,17.12
2022-10-15T20:57:09.263Z,16.99
2022-10-15T20:59:35.750Z,17.11
2022-10-15T21:02:02.237Z,17.10
2022-10-15T21:04:28.835Z,17.08
2022-10-15T21:06:57.365Z,17.04
2022-10-15T21:09:24.245Z,17.03
2022-10-15T21:11:50.803Z,16.99
2022-10-15T21:14:17.385Z,16.92
2022-10-15T21:16:44.005Z,16.87
2022-10-15T21:19:10.572Z,16.82
2022-10-15T21:21:37.303Z,16.77
2022-10-15T21:24:04.022Z,16.73
2022-10-15T21:26:30.512Z,16.68
2022-10-15T21:28:58.931Z,16.66
2022-10-15T21:31:26.147Z,16.60
2022-10-15T21:33:54.151Z,16.54
2022-10-15T21:36:25.081Z,16.45
2022-10-15T21:39:06.297Z,16.42
2022-10-15T21:41:35.582Z,16.42
2022-10-15T21:44:03.221Z,16.44
2022-10-15T21:46:33.045Z,16.40
2022-10-15T21:49:00.845Z,16.39
2022-10-15T21:51:29.881Z,16.37
2022-10-15T21:53:58.264Z,16.32
2022-10-15T21:56:25.203Z,16.32
2022-10-15T21:58:52.191Z,16.30
2022-10-15T22:01:23.879Z,16.29
2022-10-15T22:03:52.849Z,16.30
2022-10-15T22:06:20.669Z,16.26
2022-10-15T22:08:47.957Z,16.24
2022-10-15T22:11:16.646Z,16.26
2022-10-15T22:13:45.083Z,16.26
2022-10-15T22:16:13.251Z,16.26
2022-10-15T22:18:40.231Z,16.19
2022-10-15T22:21:22.067Z,16.26
2022-10-15T22:23:54.462Z,16.25
2022-10-15T22:26:23.652Z,16.25
2022-10-15T22:28:53.066Z,16.24
2022-10-15T22:31:20.245Z,16.22
2022-10-15T22:33:47.181Z,16.18
2022-10-15T22:36:16.549Z,16.16
2022-10-15T22:38:45.732Z,16.09
2022-10-15T22:41:13.458Z,16.05
2022-10-15T22:43:40.279Z,15.92
2022-10-15T22:46:07.386Z,15.88
2022-10-15T22:48:38.825Z,15.64
2022-10-15T22:51:08.757Z,15.79
2022-10-15T22:53:36.057Z,15.73
2022-10-15T22:56:08.690Z,15.72
2022-10-15T22:58:36.124Z,15.66
2022-10-15T23:01:14.209Z,15.69
2022-10-15T23:03:43.276Z,15.59
2022-10-15T23:06:10.788Z,15.66
2022-10-15T23:08:38.248Z,15.67
2022-10-15T23:11:10.503Z,15.53
2022-10-15T23:13:38.652Z,15.60
2022-10-15T23:16:19.731Z,15.53
2022-10-15T23:18:48.111Z,15.43
2022-10-15T23:21:17.293Z,15.43
2022-10-15T23:23:45.328Z,15.39
2022-10-15T23:26:14.703Z,15.36
2022-10-15T23:28:42.776Z,15.35
2022-10-15T23:31:20.106Z,15.33
2022-10-15T23:33:47.195Z,15.25
2022-10-15T23:36:14.593Z,15.25
2022-10-15T23:38:41.472Z,15.31
2022-10-15T23:41:10.379Z,15.30
2022-10-15T23:43:37.660Z,15.29
2022-10-15T23:46:04.307Z,15.31
2022-10-15T23:48:30.900Z,15.28
2022-10-15T23:51:00.915Z,15.27
2022-10-15T23:53:32.839Z,15.25
2022-10-15T23:56:02.077Z,15.20
2022-10-15T23:58:28.600Z,15.18
